sensor_id;sensor_type;location;lat;lon;timestamp;P1;durP1;ratioP1;P2;durP2;ratioP2
41217;SDS011;26950;50.960;7.138;2024-03-02T00:01:27;3.03;;;1.80;;
41217;SDS011;26950;50.960;7.138;2024-03-02T00:03:55;3.70;;;1.90;;
41217;SDS011;26950;50.960;7.138;2024-03-02T00:06:22;3.10;;;1.80;;
41217;SDS011;26950;50.960;7.138;2024-03-02T00:08:48;2.83;;;1.90;;
41217;SDS011;26950;50.960;7.138;2024-03-02T00:11:15;3.10;;;1.70;;
41217;SDS011;26950;50.960;7.138;2024-03-02T00:13:43;2.73;;;1.93;;
41217;SDS011;26950;50.960;7.138;2024-03-02T00:16:11;5.60;;;1.80;;
41217;SDS011;26950;50.960;7.138;2024-03-02T00:18:37;2.27;;;1.57;;
41217;SDS011;26950;50.960;7.138;2024-03-02T00:21:06;3.80;;;1.77;;
41217;SDS011;26950;50.960;7.138;2024-03-02T00:23:35;2.33;;;1.70;;
41217;SDS011;26950;50.960;7.138;2024-03-02T00:26:01;2.27;;;1.60;;
41217;SDS011;26950;50.960;7.138;2024-03-02T00:28:29;3.77;;;1.63;;
41217;SDS011;26950;50.960;7.138;2024-03-02T00:30:59;2.67;;;1.60;;
41217;SDS011;26950;50.960;7.138;2024-03-02T00:33:28;3.87;;;1.60;;
41217;SDS011;26950;50.960;7.138;2024-03-02T00:35:57;2.60;;;1.40;;
41217;SDS011;26950;50.960;7.138;2024-03-02T00:38:26;3.57;;;1.53;;
41217;SDS011;26950;50.960;7.138;2024-03-02T00:40:53;2.53;;;1.80;;
41217;SDS011;26950;50.960;7.138;2024-03-02T00:43:31;2.37;;;1.60;;
41217;SDS011;26950;50.960;7.138;2024-03-02T00:46:13;1.40;;;1.27;;
41217;SDS011;26950;50.960;7.138;2024-03-02T00:48:45;2.80;;;1.50;;
41217;SDS011;26950;50.960;7.138;2024-03-02T00:51:15;1.70;;;1.50;;
41217;SDS011;26950;50.960;7.138;2024-03-02T00:53:42;3.00;;;1.60;;
41217;SDS011;26950;50.960;7.138;2024-03-02T00:56:09;2.50;;;1.50;;
41217;SDS011;26950;50.960;7.138;2024-03-02T00:58:37;3.07;;;1.57;;
41217;SDS011;26950;50.960;7.138;2024-03-02T01:01:04;3.80;;;1.30;;
41217;SDS011;26950;50.960;7.138;2024-03-02T01:03:32;1.60;;;1.40;;
41217;SDS011;26950;50.960;7.138;2024-03-02T01:05:58;4.40;;;1.70;;
41217;SDS011;26950;50.960;7.138;2024-03-02T01:08:25;2.77;;;1.60;;
41217;SDS011;26950;50.960;7.138;2024-03-02T01:10:53;2.07;;;1.37;;
41217;SDS011;26950;50.960;7.138;2024-03-02T01:13:20;2.87;;;1.50;;
41217;SDS011;26950;50.960;7.138;2024-03-02T01:15:47;2.73;;;1.33;;
41217;SDS011;26950;50.960;7.138;2024-03-02T01:18:13;2.20;;;1.40;;
41217;SDS011;26950;50.960;7.138;2024-03-02T01:20:39;3.23;;;1.60;;
41217;SDS011;26950;50.960;7.138;2024-03-02T01:23:05;2.10;;;1.40;;
41217;SDS011;26950;50.960;7.138;2024-03-02T01:25:32;1.90;;;1.40;;
41217;SDS011;26950;50.960;7.138;2024-03-02T01:28:00;3.77;;;1.60;;
41217;SDS011;26950;50.960;7.138;2024-03-02T01:30:26;2.37;;;1.40;;
41217;SDS011;26950;50.960;7.138;2024-03-02T01:32:53;2.20;;;1.27;;
41217;SDS011;26950;50.960;7.138;2024-03-02T01:35:19;2.23;;;1.50;;
41217;SDS011;26950;50.960;7.138;2024-03-02T01:37:45;2.63;;;1.47;;
41217;SDS011;26950;50.960;7.138;2024-03-02T01:40:12;2.57;;;1.43;;
41217;SDS011;26950;50.960;7.138;2024-03-02T01:42:39;2.53;;;1.40;;
41217;SDS011;26950;50.960;7.138;2024-03-02T01:45:07;2.87;;;1.40;;
41217;SDS011;26950;50.960;7.138;2024-03-02T01:47:34;2.43;;;1.57;;
41217;SDS011;26950;50.960;7.138;2024-03-02T01:50:01;3.20;;;1.30;;
41217;SDS011;26950;50.960;7.138;2024-03-02T01:52:28;1.87;;;1.37;;
41217;SDS011;26950;50.960;7.138;2024-03-02T01:54:55;3.10;;;1.40;;
41217;SDS011;26950;50.960;7.138;2024-03-02T01:57:22;3.57;;;1.60;;
41217;SDS011;26950;50.960;7.138;2024-03-02T01:59:48;2.10;;;1.23;;
41217;SDS011;26950;50.960;7.138;2024-03-02T02:02:17;2.60;;;1.57;;
41217;SDS011;26950;50.960;7.138;2024-03-02T02:04:43;2.67;;;1.63;;
41217;SDS011;26950;50.960;7.138;2024-03-02T02:07:10;3.37;;;1.60;;
41217;SDS011;26950;50.960;7.138;2024-03-02T02:09:37;1.83;;;1.40;;
41217;SDS011;26950;50.960;7.138;2024-03-02T02:12:03;2.40;;;1.33;;
41217;SDS011;26950;50.960;7.138;2024-03-02T02:14:31;3.43;;;1.60;;
41217;SDS011;26950;50.960;7.138;2024-03-02T02:16:58;2.23;;;1.40;;
41217;SDS011;26950;50.960;7.138;2024-03-02T02:19:26;3.17;;;1.67;;
41217;SDS011;26950;50.960;7.138;2024-03-02T02:21:54;2.37;;;1.70;;
41217;SDS011;26950;50.960;7.138;2024-03-02T02:24:20;3.63;;;1.70;;
41217;SDS011;26950;50.960;7.138;2024-03-02T02:26:47;3.03;;;1.37;;
41217;SDS011;26950;50.960;7.138;2024-03-02T02:29:13;1.93;;;1.40;;
41217;SDS011;26950;50.960;7.138;2024-03-02T02:31:40;2.20;;;1.57;;
41217;SDS011;26950;50.960;7.138;2024-03-02T02:34:07;3.63;;;1.70;;
41217;SDS011;26950;50.960;7.138;2024-03-02T02:36:34;2.47;;;1.40;;
41217;SDS011;26950;50.960;7.138;2024-03-02T02:39:05;3.07;;;1.50;;
41217;SDS011;26950;50.960;7.138;2024-03-02T02:41:33;3.20;;;1.80;;
41217;SDS011;26950;50.960;7.138;2024-03-02T02:44:00;4.13;;;1.33;;
41217;SDS011;26950;50.960;7.138;2024-03-02T02:46:26;2.17;;;1.57;;
41217;SDS011;26950;50.960;7.138;2024-03-02T02:48:53;2.53;;;1.70;;
41217;SDS011;26950;50.960;7.138;2024-03-02T02:51:19;2.57;;;1.50;;
41217;SDS011;26950;50.960;7.138;2024-03-02T02:53:46;3.33;;;1.30;;
41217;SDS011;26950;50.960;7.138;2024-03-02T02:56:14;3.03;;;1.60;;
41217;SDS011;26950;50.960;7.138;2024-03-02T02:58:40;3.20;;;1.40;;
41217;SDS011;26950;50.960;7.138;2024-03-02T03:01:07;4.00;;;1.50;;
41217;SDS011;26950;50.960;7.138;2024-03-02T03:03:34;2.93;;;1.70;;
41217;SDS011;26950;50.960;7.138;2024-03-02T03:06:00;2.53;;;1.63;;
41217;SDS011;26950;50.960;7.138;2024-03-02T03:08:27;3.83;;;1.50;;
41217;SDS011;26950;50.960;7.138;2024-03-02T03:10:53;1.80;;;1.30;;
41217;SDS011;26950;50.960;7.138;2024-03-02T03:13:21;3.03;;;1.40;;
41217;SDS011;26950;50.960;7.138;2024-03-02T03:15:48;3.67;;;1.50;;
41217;SDS011;26950;50.960;7.138;2024-03-02T03:18:14;2.63;;;1.30;;
41217;SDS011;26950;50.960;7.138;2024-03-02T03:20:41;2.57;;;1.40;;
41217;SDS011;26950;50.960;7.138;2024-03-02T03:23:07;3.03;;;1.43;;
41217;SDS011;26950;50.960;7.138;2024-03-02T03:25:34;2.60;;;1.33;;
41217;SDS011;26950;50.960;7.138;2024-03-02T03:28:00;3.13;;;1.60;;
41217;SDS011;26950;50.960;7.138;2024-03-02T03:30:29;2.70;;;1.37;;
41217;SDS011;26950;50.960;7.138;2024-03-02T03:32:56;2.40;;;1.50;;
41217;SDS011;26950;50.960;7.138;2024-03-02T03:35:22;3.20;;;1.37;;
41217;SDS011;26950;50.960;7.138;2024-03-02T03:37:49;2.80;;;1.40;;
41217;SDS011;26950;50.960;7.138;2024-03-02T03:40:15;2.47;;;1.30;;
41217;SDS011;26950;50.960;7.138;2024-03-02T03:42:43;3.50;;;1.50;;
41217;SDS011;26950;50.960;7.138;2024-03-02T03:45:09;2.00;;;1.33;;
41217;SDS011;26950;50.960;7.138;2024-03-02T03:47:37;2.50;;;1.27;;
41217;SDS011;26950;50.960;7.138;2024-03-02T03:50:04;2.80;;;1.37;;
41217;SDS011;26950;50.960;7.138;2024-03-02T03:52:32;2.30;;;1.37;;
41217;SDS011;26950;50.960;7.138;2024-03-02T03:54:58;2.07;;;1.20;;
41217;SDS011;26950;50.960;7.138;2024-03-02T03:57:25;2.57;;;1.40;;
41217;SDS011;26950;50.960;7.138;2024-03-02T03:59:52;1.97;;;1.17;;
41217;SDS011;26950;50.960;7.138;2024-03-02T04:02:18;4.17;;;1.40;;
41217;SDS011;26950;50.960;7.138;2024-03-02T04:04:46;2.33;;;1.10;;
41217;SDS011;26950;50.960;7.138;2024-03-02T04:07:12;7.03;;;1.20;;
41217;SDS011;26950;50.960;7.138;2024-03-02T04:09:39;2.40;;;1.50;;
41217;SDS011;26950;50.960;7.138;2024-03-02T04:12:06;2.10;;;1.50;;
41217;SDS011;26950;50.960;7.138;2024-03-02T04:14:32;3.67;;;1.50;;
41217;SDS011;26950;50.960;7.138;2024-03-02T04:16:59;2.30;;;1.50;;
41217;SDS011;26950;50.960;7.138;2024-03-02T04:19:25;2.27;;;1.50;;
41217;SDS011;26950;50.960;7.138;2024-03-02T04:21:53;2.10;;;1.43;;
41217;SDS011;26950;50.960;7.138;2024-03-02T04:24:20;2.70;;;1.57;;
41217;SDS011;26950;50.960;7.138;2024-03-02T04:26:46;2.97;;;1.60;;
41217;SDS011;26950;50.960;7.138;2024-03-02T04:29:13;5.20;;;1.80;;
41217;SDS011;26950;50.960;7.138;2024-03-02T04:31:39;3.33;;;1.87;;
41217;SDS011;26950;50.960;7.138;2024-03-02T04:34:05;3.00;;;2.00;;
41217;SDS011;26950;50.960;7.138;2024-03-02T04:36:32;3.00;;;1.77;;
41217;SDS011;26950;50.960;7.138;2024-03-02T04:39:00;2.47;;;1.60;;
41217;SDS011;26950;50.960;7.138;2024-03-02T04:41:26;5.10;;;2.00;;
41217;SDS011;26950;50.960;7.138;2024-03-02T04:43:53;3.00;;;1.93;;
41217;SDS011;26950;50.960;7.138;2024-03-02T04:46:19;4.37;;;2.23;;
41217;SDS011;26950;50.960;7.138;2024-03-02T04:48:46;3.60;;;2.20;;
41217;SDS011;26950;50.960;7.138;2024-03-02T04:51:13;3.47;;;2.00;;
41217;SDS011;26950;50.960;7.138;2024-03-02T04:53:41;2.80;;;1.80;;
41217;SDS011;26950;50.960;7.138;2024-03-02T04:56:09;6.03;;;2.00;;
41217;SDS011;26950;50.960;7.138;2024-03-02T04:59:04;6.03;;;2.07;;
41217;SDS011;26950;50.960;7.138;2024-03-02T05:01:31;4.47;;;2.10;;
41217;SDS011;26950;50.960;7.138;2024-03-02T05:03:58;3.50;;;2.07;;
41217;SDS011;26950;50.960;7.138;2024-03-02T05:06:24;3.23;;;2.40;;
41217;SDS011;26950;50.960;7.138;2024-03-02T05:08:51;3.87;;;1.97;;
41217;SDS011;26950;50.960;7.138;2024-03-02T05:11:18;4.23;;;2.37;;
41217;SDS011;26950;50.960;7.138;2024-03-02T05:14:08;3.40;;;2.30;;
41217;SDS011;26950;50.960;7.138;2024-03-02T05:16:34;3.50;;;2.20;;
41217;SDS011;26950;50.960;7.138;2024-03-02T05:19:01;4.37;;;2.00;;
41217;SDS011;26950;50.960;7.138;2024-03-02T05:21:28;4.00;;;2.20;;
41217;SDS011;26950;50.960;7.138;2024-03-02T05:23:54;2.93;;;2.00;;
41217;SDS011;26950;50.960;7.138;2024-03-02T05:26:23;2.17;;;1.83;;
41217;SDS011;26950;50.960;7.138;2024-03-02T05:28:49;3.37;;;2.17;;
41217;SDS011;26950;50.960;7.138;2024-03-02T05:31:16;4.57;;;1.73;;
41217;SDS011;26950;50.960;7.138;2024-03-02T05:33:42;3.40;;;2.20;;
41217;SDS011;26950;50.960;7.138;2024-03-02T05:36:09;3.47;;;2.13;;
41217;SDS011;26950;50.960;7.138;2024-03-02T05:38:35;4.50;;;1.90;;
41217;SDS011;26950;50.960;7.138;2024-03-02T05:41:02;4.47;;;2.40;;
41217;SDS011;26950;50.960;7.138;2024-03-02T05:43:31;4.73;;;2.10;;
41217;SDS011;26950;50.960;7.138;2024-03-02T05:45:57;5.17;;;2.30;;
41217;SDS011;26950;50.960;7.138;2024-03-02T05:48:24;3.53;;;1.90;;
41217;SDS011;26950;50.960;7.138;2024-03-02T05:50:50;5.17;;;2.90;;
41217;SDS011;26950;50.960;7.138;2024-03-02T05:53:17;5.17;;;3.20;;
41217;SDS011;26950;50.960;7.138;2024-03-02T05:55:43;6.93;;;3.00;;
41217;SDS011;26950;50.960;7.138;2024-03-02T05:58:10;5.73;;;2.40;;
41217;SDS011;26950;50.960;7.138;2024-03-02T06:00:52;3.60;;;2.30;;
41217;SDS011;26950;50.960;7.138;2024-03-02T06:03:19;4.03;;;2.47;;
41217;SDS011;26950;50.960;7.138;2024-03-02T06:05:46;5.20;;;2.00;;
41217;SDS011;26950;50.960;7.138;2024-03-02T06:08:14;6.63;;;2.30;;
41217;SDS011;26950;50.960;7.138;2024-03-02T06:10:41;4.53;;;2.40;;
41217;SDS011;26950;50.960;7.138;2024-03-02T06:13:07;4.00;;;2.43;;
41217;SDS011;26950;50.960;7.138;2024-03-02T06:15:34;5.00;;;2.60;;
41217;SDS011;26950;50.960;7.138;2024-03-02T06:18:02;5.07;;;2.47;;
41217;SDS011;26950;50.960;7.138;2024-03-02T06:20:29;4.93;;;2.30;;
41217;SDS011;26950;50.960;7.138;2024-03-02T06:22:56;4.20;;;2.50;;
41217;SDS011;26950;50.960;7.138;2024-03-02T06:25:22;4.70;;;2.67;;
41217;SDS011;26950;50.960;7.138;2024-03-02T06:27:49;6.13;;;2.80;;
41217;SDS011;26950;50.960;7.138;2024-03-02T06:30:16;5.43;;;2.63;;
41217;SDS011;26950;50.960;7.138;2024-03-02T06:32:42;5.37;;;2.63;;
41217;SDS011;26950;50.960;7.138;2024-03-02T06:35:10;7.97;;;2.80;;
41217;SDS011;26950;50.960;7.138;2024-03-02T06:37:38;4.73;;;2.70;;
41217;SDS011;26950;50.960;7.138;2024-03-02T06:40:06;5.90;;;2.63;;
41217;SDS011;26950;50.960;7.138;2024-03-02T06:42:33;6.40;;;2.93;;
41217;SDS011;26950;50.960;7.138;2024-03-02T06:45:00;4.90;;;2.50;;
41217;SDS011;26950;50.960;7.138;2024-03-02T06:47:26;4.10;;;2.50;;
41217;SDS011;26950;50.960;7.138;2024-03-02T06:49:53;6.23;;;2.40;;
41217;SDS011;26950;50.960;7.138;2024-03-02T06:52:21;6.13;;;2.80;;
41217;SDS011;26950;50.960;7.138;2024-03-02T06:54:47;4.60;;;2.73;;
41217;SDS011;26950;50.960;7.138;2024-03-02T06:57:14;4.57;;;2.70;;
41217;SDS011;26950;50.960;7.138;2024-03-02T06:59:42;5.60;;;2.80;;
41217;SDS011;26950;50.960;7.138;2024-03-02T07:02:08;4.67;;;2.33;;
41217;SDS011;26950;50.960;7.138;2024-03-02T07:04:35;4.77;;;2.87;;
41217;SDS011;26950;50.960;7.138;2024-03-02T07:07:01;6.90;;;2.50;;
41217;SDS011;26950;50.960;7.138;2024-03-02T07:09:29;4.23;;;2.50;;
41217;SDS011;26950;50.960;7.138;2024-03-02T07:11:55;5.93;;;2.53;;
41217;SDS011;26950;50.960;7.138;2024-03-02T07:14:22;6.67;;;2.80;;
41217;SDS011;26950;50.960;7.138;2024-03-02T07:17:09;5.00;;;2.40;;
41217;SDS011;26950;50.960;7.138;2024-03-02T07:19:37;5.73;;;2.90;;
41217;SDS011;26950;50.960;7.138;2024-03-02T07:22:05;5.03;;;2.50;;
41217;SDS011;26950;50.960;7.138;2024-03-02T07:24:34;4.57;;;2.37;;
41217;SDS011;26950;50.960;7.138;2024-03-02T07:27:05;4.10;;;2.73;;
41217;SDS011;26950;50.960;7.138;2024-03-02T07:29:32;3.20;;;2.17;;
41217;SDS011;26950;50.960;7.138;2024-03-02T07:31:58;4.13;;;2.57;;
41217;SDS011;26950;50.960;7.138;2024-03-02T07:34:25;4.23;;;2.30;;
41217;SDS011;26950;50.960;7.138;2024-03-02T07:36:51;4.67;;;2.63;;
41217;SDS011;26950;50.960;7.138;2024-03-02T07:39:18;5.77;;;2.30;;
41217;SDS011;26950;50.960;7.138;2024-03-02T07:41:46;3.87;;;2.37;;
41217;SDS011;26950;50.960;7.138;2024-03-02T07:44:13;3.67;;;2.20;;
41217;SDS011;26950;50.960;7.138;2024-03-02T07:46:40;4.97;;;2.77;;
41217;SDS011;26950;50.960;7.138;2024-03-02T07:49:07;4.73;;;2.40;;
41217;SDS011;26950;50.960;7.138;2024-03-02T07:51:34;5.53;;;2.40;;
41217;SDS011;26950;50.960;7.138;2024-03-02T07:54:01;2.87;;;2.13;;
41217;SDS011;26950;50.960;7.138;2024-03-02T07:56:27;5.67;;;2.60;;
41217;SDS011;26950;50.960;7.138;2024-03-02T07:58:56;4.07;;;2.27;;
41217;SDS011;26950;50.960;7.138;2024-03-02T08:01:26;5.03;;;2.70;;
41217;SDS011;26950;50.960;7.138;2024-03-02T08:03:52;3.60;;;2.20;;
41217;SDS011;26950;50.960;7.138;2024-03-02T08:06:20;4.10;;;2.50;;
41217;SDS011;26950;50.960;7.138;2024-03-02T08:08:47;6.47;;;2.53;;
41217;SDS011;26950;50.960;7.138;2024-03-02T08:11:13;4.43;;;2.20;;
41217;SDS011;26950;50.960;7.138;2024-03-02T08:13:40;2.70;;;2.03;;
41217;SDS011;26950;50.960;7.138;2024-03-02T08:16:07;4.43;;;2.17;;
41217;SDS011;26950;50.960;7.138;2024-03-02T08:18:34;4.47;;;2.33;;
41217;SDS011;26950;50.960;7.138;2024-03-02T08:21:01;3.73;;;2.23;;
41217;SDS011;26950;50.960;7.138;2024-03-02T08:23:27;4.97;;;2.17;;
41217;SDS011;26950;50.960;7.138;2024-03-02T08:25:54;9.70;;;3.07;;
41217;SDS011;26950;50.960;7.138;2024-03-02T08:28:20;3.03;;;1.80;;
41217;SDS011;26950;50.960;7.138;2024-03-02T08:30:47;3.47;;;1.93;;
41217;SDS011;26950;50.960;7.138;2024-03-02T08:33:15;4.27;;;1.80;;
41217;SDS011;26950;50.960;7.138;2024-03-02T08:35:41;2.87;;;1.70;;
41217;SDS011;26950;50.960;7.138;2024-03-02T08:38:08;3.80;;;1.73;;
41217;SDS011;26950;50.960;7.138;2024-03-02T08:40:34;3.57;;;1.70;;
41217;SDS011;26950;50.960;7.138;2024-03-02T08:43:01;3.30;;;1.50;;
41217;SDS011;26950;50.960;7.138;2024-03-02T08:45:28;4.67;;;1.70;;
41217;SDS011;26950;50.960;7.138;2024-03-02T08:47:55;4.83;;;1.87;;
41217;SDS011;26950;50.960;7.138;2024-03-02T08:50:23;3.83;;;1.63;;
41217;SDS011;26950;50.960;7.138;2024-03-02T08:52:49;4.50;;;1.70;;
41217;SDS011;26950;50.960;7.138;2024-03-02T08:55:15;2.20;;;1.50;;
41217;SDS011;26950;50.960;7.138;2024-03-02T08:57:42;3.00;;;1.60;;
41217;SDS011;26950;50.960;7.138;2024-03-02T09:00:09;3.13;;;1.60;;
41217;SDS011;26950;50.960;7.138;2024-03-02T09:02:36;3.77;;;1.60;;
41217;SDS011;26950;50.960;7.138;2024-03-02T09:05:04;3.30;;;1.77;;
41217;SDS011;26950;50.960;7.138;2024-03-02T09:07:32;3.80;;;1.57;;
41217;SDS011;26950;50.960;7.138;2024-03-02T09:09:59;3.57;;;1.70;;
41217;SDS011;26950;50.960;7.138;2024-03-02T09:12:25;3.80;;;1.93;;
41217;SDS011;26950;50.960;7.138;2024-03-02T09:14:52;2.65;;;1.50;;
41217;SDS011;26950;50.960;7.138;2024-03-02T09:17:18;3.85;;;1.50;;
41217;SDS011;26950;50.960;7.138;2024-03-02T09:19:45;2.55;;;1.48;;
41217;SDS011;26950;50.960;7.138;2024-03-02T09:22:12;1.77;;;1.25;;
41217;SDS011;26950;50.960;7.138;2024-03-02T09:24:40;6.32;;;1.63;;
41217;SDS011;26950;50.960;7.138;2024-03-02T09:27:07;2.58;;;1.48;;
41217;SDS011;26950;50.960;7.138;2024-03-02T09:29:33;2.40;;;1.30;;
41217;SDS011;26950;50.960;7.138;2024-03-02T09:31:59;2.95;;;1.42;;
41217;SDS011;26950;50.960;7.138;2024-03-02T09:34:26;3.42;;;1.40;;
41217;SDS011;26950;50.960;7.138;2024-03-02T09:36:53;2.85;;;1.42;;
41217;SDS011;26950;50.960;7.138;2024-03-02T09:39:19;3.50;;;1.40;;
41217;SDS011;26950;50.960;7.138;2024-03-02T09:41:47;2.57;;;1.30;;
41217;SDS011;26950;50.960;7.138;2024-03-02T09:44:14;3.13;;;1.60;;
41217;SDS011;26950;50.960;7.138;2024-03-02T09:46:40;3.53;;;1.40;;
41217;SDS011;26950;50.960;7.138;2024-03-02T09:49:08;2.87;;;1.40;;
41217;SDS011;26950;50.960;7.138;2024-03-02T09:51:36;2.83;;;1.50;;
41217;SDS011;26950;50.960;7.138;2024-03-02T09:54:03;5.78;;;1.60;;
41217;SDS011;26950;50.960;7.138;2024-03-02T09:56:30;3.80;;;1.42;;
41217;SDS011;26950;50.960;7.138;2024-03-02T09:58:58;3.17;;;1.63;;
41217;SDS011;26950;50.960;7.138;2024-03-02T10:01:25;3.15;;;1.65;;
41217;SDS011;26950;50.960;7.138;2024-03-02T10:03:52;3.92;;;1.73;;
41217;SDS011;26950;50.960;7.138;2024-03-02T10:06:20;4.80;;;1.70;;
41217;SDS011;26950;50.960;7.138;2024-03-02T10:08:48;4.20;;;1.73;;
41217;SDS011;26950;50.960;7.138;2024-03-02T10:11:28;2.03;;;1.48;;
41217;SDS011;26950;50.960;7.138;2024-03-02T10:14:07;4.17;;;1.83;;
41217;SDS011;26950;50.960;7.138;2024-03-02T10:16:35;2.53;;;1.53;;
41217;SDS011;26950;50.960;7.138;2024-03-02T10:19:17;2.10;;;1.40;;
41217;SDS011;26950;50.960;7.138;2024-03-02T10:21:45;4.63;;;1.52;;
41217;SDS011;26950;50.960;7.138;2024-03-02T10:24:12;3.53;;;1.67;;
41217;SDS011;26950;50.960;7.138;2024-03-02T10:26:39;3.13;;;1.42;;
41217;SDS011;26950;50.960;7.138;2024-03-02T10:29:09;2.50;;;1.40;;
41217;SDS011;26950;50.960;7.138;2024-03-02T10:31:36;4.10;;;1.48;;
41217;SDS011;26950;50.960;7.138;2024-03-02T10:34:04;2.28;;;1.45;;
41217;SDS011;26950;50.960;7.138;2024-03-02T10:36:31;3.30;;;1.70;;
41217;SDS011;26950;50.960;7.138;2024-03-02T10:38:58;3.83;;;1.50;;
41217;SDS011;26950;50.960;7.138;2024-03-02T10:41:24;2.42;;;1.38;;
41217;SDS011;26950;50.960;7.138;2024-03-02T10:43:53;2.83;;;1.48;;
41217;SDS011;26950;50.960;7.138;2024-03-02T10:46:25;2.55;;;1.50;;
41217;SDS011;26950;50.960;7.138;2024-03-02T10:48:54;3.15;;;1.60;;
41217;SDS011;26950;50.960;7.138;2024-03-02T10:51:21;2.03;;;1.27;;
41217;SDS011;26950;50.960;7.138;2024-03-02T10:53:47;2.83;;;1.40;;
41217;SDS011;26950;50.960;7.138;2024-03-02T10:56:15;2.15;;;1.45;;
41217;SDS011;26950;50.960;7.138;2024-03-02T10:58:47;2.55;;;1.60;;
41217;SDS011;26950;50.960;7.138;2024-03-02T11:01:17;2.28;;;1.50;;
41217;SDS011;26950;50.960;7.138;2024-03-02T11:03:46;3.28;;;1.60;;
41217;SDS011;26950;50.960;7.138;2024-03-02T11:06:13;2.00;;;1.25;;
41217;SDS011;26950;50.960;7.138;2024-03-02T11:08:40;3.63;;;1.55;;
41217;SDS011;26950;50.960;7.138;2024-03-02T11:11:13;2.33;;;1.40;;
41217;SDS011;26950;50.960;7.138;2024-03-02T11:13:42;3.58;;;1.40;;
41217;SDS011;26950;50.960;7.138;2024-03-02T11:16:16;2.40;;;1.20;;
41217;SDS011;26950;50.960;7.138;2024-03-02T11:18:53;1.88;;;1.30;;
41217;SDS011;26950;50.960;7.138;2024-03-02T11:21:20;2.95;;;1.10;;
41217;SDS011;26950;50.960;7.138;2024-03-02T11:23:47;3.97;;;1.50;;
41217;SDS011;26950;50.960;7.138;2024-03-02T11:26:17;1.45;;;1.00;;
41217;SDS011;26950;50.960;7.138;2024-03-02T11:28:44;1.73;;;1.08;;
41217;SDS011;26950;50.960;7.138;2024-03-02T11:31:11;1.80;;;0.90;;
41217;SDS011;26950;50.960;7.138;2024-03-02T11:33:37;1.55;;;1.00;;
41217;SDS011;26950;50.960;7.138;2024-03-02T11:36:06;1.60;;;0.85;;
41217;SDS011;26950;50.960;7.138;2024-03-02T11:38:34;2.00;;;1.10;;
41217;SDS011;26950;50.960;7.138;2024-03-02T11:41:01;2.58;;;1.02;;
41217;SDS011;26950;50.960;7.138;2024-03-02T11:43:29;3.35;;;0.93;;
41217;SDS011;26950;50.960;7.138;2024-03-02T11:45:57;2.10;;;1.05;;
41217;SDS011;26950;50.960;7.138;2024-03-02T11:48:24;2.10;;;1.00;;
41217;SDS011;26950;50.960;7.138;2024-03-02T11:50:51;2.88;;;1.30;;
41217;SDS011;26950;50.960;7.138;2024-03-02T11:53:20;2.67;;;1.10;;
41217;SDS011;26950;50.960;7.138;2024-03-02T11:55:47;2.30;;;1.35;;
41217;SDS011;26950;50.960;7.138;2024-03-02T11:58:15;3.05;;;1.20;;
41217;SDS011;26950;50.960;7.138;2024-03-02T12:00:42;1.88;;;1.00;;
41217;SDS011;26950;50.960;7.138;2024-03-02T12:03:12;3.95;;;1.10;;
41217;SDS011;26950;50.960;7.138;2024-03-02T12:05:39;1.92;;;1.10;;
41217;SDS011;26950;50.960;7.138;2024-03-02T12:08:06;2.30;;;1.10;;
41217;SDS011;26950;50.960;7.138;2024-03-02T12:10:35;1.40;;;0.98;;
41217;SDS011;26950;50.960;7.138;2024-03-02T12:13:02;1.33;;;1.02;;
41217;SDS011;26950;50.960;7.138;2024-03-02T12:15:32;1.98;;;1.20;;
41217;SDS011;26950;50.960;7.138;2024-03-02T12:18:02;2.20;;;1.20;;
41217;SDS011;26950;50.960;7.138;2024-03-02T12:20:29;2.58;;;1.27;;
41217;SDS011;26950;50.960;7.138;2024-03-02T12:22:58;1.85;;;1.13;;
41217;SDS011;26950;50.960;7.138;2024-03-02T12:25:25;3.97;;;1.30;;
41217;SDS011;26950;50.960;7.138;2024-03-02T12:27:54;2.78;;;1.50;;
41217;SDS011;26950;50.960;7.138;2024-03-02T12:30:22;2.13;;;1.08;;
41217;SDS011;26950;50.960;7.138;2024-03-02T12:32:50;1.58;;;1.20;;
41217;SDS011;26950;50.960;7.138;2024-03-02T12:35:17;1.33;;;1.08;;
41217;SDS011;26950;50.960;7.138;2024-03-02T12:37:44;1.63;;;1.10;;
41217;SDS011;26950;50.960;7.138;2024-03-02T12:40:12;1.75;;;1.02;;
41217;SDS011;26950;50.960;7.138;2024-03-02T12:42:40;2.88;;;1.20;;
41217;SDS011;26950;50.960;7.138;2024-03-02T12:45:09;3.50;;;1.02;;
41217;SDS011;26950;50.960;7.138;2024-03-02T12:47:36;1.63;;;1.10;;
41217;SDS011;26950;50.960;7.138;2024-03-02T12:50:03;2.75;;;0.90;;
41217;SDS011;26950;50.960;7.138;2024-03-02T12:52:31;1.58;;;0.90;;
41217;SDS011;26950;50.960;7.138;2024-03-02T12:54:59;1.50;;;0.90;;
41217;SDS011;26950;50.960;7.138;2024-03-02T12:57:26;1.50;;;0.93;;
41217;SDS011;26950;50.960;7.138;2024-03-02T12:59:56;1.35;;;1.10;;
41217;SDS011;26950;50.960;7.138;2024-03-02T13:02:27;3.20;;;1.38;;
41217;SDS011;26950;50.960;7.138;2024-03-02T13:04:54;2.90;;;1.05;;
41217;SDS011;26950;50.960;7.138;2024-03-02T13:07:21;3.67;;;1.15;;
41217;SDS011;26950;50.960;7.138;2024-03-02T13:09:47;2.75;;;1.33;;
41217;SDS011;26950;50.960;7.138;2024-03-02T13:12:14;2.58;;;1.40;;
41217;SDS011;26950;50.960;7.138;2024-03-02T13:14:41;2.28;;;1.10;;
41217;SDS011;26950;50.960;7.138;2024-03-02T13:17:07;3.17;;;1.30;;
41217;SDS011;26950;50.960;7.138;2024-03-02T13:19:35;1.13;;;0.80;;
41217;SDS011;26950;50.960;7.138;2024-03-02T13:22:02;2.38;;;0.95;;
41217;SDS011;26950;50.960;7.138;2024-03-02T13:24:29;2.80;;;1.40;;
41217;SDS011;26950;50.960;7.138;2024-03-02T13:26:55;2.38;;;1.25;;
41217;SDS011;26950;50.960;7.138;2024-03-02T13:29:23;0.88;;;0.80;;
41217;SDS011;26950;50.960;7.138;2024-03-02T13:31:50;2.28;;;0.90;;
41217;SDS011;26950;50.960;7.138;2024-03-02T13:34:16;0.93;;;0.80;;
41217;SDS011;26950;50.960;7.138;2024-03-02T13:36:44;1.35;;;0.80;;
41217;SDS011;26950;50.960;7.138;2024-03-02T13:39:10;2.45;;;0.95;;
41217;SDS011;26950;50.960;7.138;2024-03-02T13:41:40;2.38;;;0.80;;
41217;SDS011;26950;50.960;7.138;2024-03-02T13:44:07;1.88;;;1.00;;
41217;SDS011;26950;50.960;7.138;2024-03-02T13:46:33;2.65;;;1.20;;
41217;SDS011;26950;50.960;7.138;2024-03-02T13:49:00;2.30;;;1.10;;
41217;SDS011;26950;50.960;7.138;2024-03-02T13:51:26;2.45;;;1.00;;
41217;SDS011;26950;50.960;7.138;2024-03-02T13:53:54;1.90;;;1.17;;
41217;SDS011;26950;50.960;7.138;2024-03-02T13:56:21;2.53;;;1.00;;
41217;SDS011;26950;50.960;7.138;2024-03-02T13:58:48;1.33;;;0.93;;
41217;SDS011;26950;50.960;7.138;2024-03-02T14:01:15;1.20;;;0.80;;
41217;SDS011;26950;50.960;7.138;2024-03-02T14:03:41;1.83;;;1.00;;
41217;SDS011;26950;50.960;7.138;2024-03-02T14:06:08;1.17;;;0.93;;
41217;SDS011;26950;50.960;7.138;2024-03-02T14:08:35;2.53;;;1.30;;
41217;SDS011;26950;50.960;7.138;2024-03-02T14:11:03;2.85;;;0.98;;
41217;SDS011;26950;50.960;7.138;2024-03-02T14:13:29;1.50;;;1.08;;
41217;SDS011;26950;50.960;7.138;2024-03-02T14:15:56;1.63;;;0.88;;
41217;SDS011;26950;50.960;7.138;2024-03-02T14:18:23;3.65;;;1.10;;
41217;SDS011;26950;50.960;7.138;2024-03-02T14:20:49;2.15;;;1.00;;
41217;SDS011;26950;50.960;7.138;2024-03-02T14:23:17;1.67;;;1.10;;
41217;SDS011;26950;50.960;7.138;2024-03-02T14:25:44;1.38;;;0.90;;
41217;SDS011;26950;50.960;7.138;2024-03-02T14:28:12;1.00;;;0.80;;
41217;SDS011;26950;50.960;7.138;2024-03-02T14:30:41;1.30;;;1.00;;
41217;SDS011;26950;50.960;7.138;2024-03-02T14:33:08;1.17;;;0.68;;
41217;SDS011;26950;50.960;7.138;2024-03-02T14:35:35;0.93;;;0.82;;
41217;SDS011;26950;50.960;7.138;2024-03-02T14:38:02;1.27;;;1.00;;
41217;SDS011;26950;50.960;7.138;2024-03-02T14:40:29;2.55;;;0.90;;
41217;SDS011;26950;50.960;7.138;2024-03-02T14:42:55;1.40;;;1.20;;
41217;SDS011;26950;50.960;7.138;2024-03-02T14:45:23;1.90;;;1.60;;
41217;SDS011;26950;50.960;7.138;2024-03-02T14:47:50;1.85;;;1.00;;
41217;SDS011;26950;50.960;7.138;2024-03-02T14:50:18;6.53;;;2.10;;